National Geographic Sea Lion — WUR9646 — position and weather

sailwx.info

Track history (hours):
 
Tides and Currents Weather Stations Pressure Air Temp Water Temp Dewpoint Dewpoint Depression Visibility Wind Speed Wind Dir Waves Ship Positions

National Geographic Sea Lion

Owner: Lindblad Expeditions, Inc., SEATTLE, WA. More information available from US FCC via Universal Licensing System and Coast Guard Vessel Documentation Center.

Last reported at 2017-May-26 17:00 UTC. Time now 2017-May-27 02:18 UTC.
Position N 58°39' W 136°03'.

Length 45 m; draft 2.4 m.

Type: Passenger vessel. MMSI: 366396000.

Date/timePositionNaut miles runAvg speedWind from/ knotsBaromVisibWave heightAir tempDewpointWater temp
2017-May-26 17:00N 58°39' W 136°03'1 1.3
2017-May-26 16:30N 58°38' W 136°02'3 6.7
2017-May-26 15:59N 58°35' W 136°03'4 8.6
2017-May-26 15:30N 58°31' W 136°03'3 5.7
2017-May-26 15:00N 58°28' W 136°02'3 6.4
2017-May-26 14:30N 58°26' W 135°57'2 2.3
2017-May-26 13:30N 58°27' W 135°53'0 0.0
2017-May-26 13:00N 58°27' W 135°53'0 0.0
2017-May-26 12:30N 58°27' W 135°53'4 7.6
2017-May-26 12:00N 58°24' W 135°58'4 8.4
2017-May-26 11:30N 58°20' W 135°60'2 0.6
2017-May-26 07:21N 58°18' W 136°01'0 0.1
2017-May-26 07:00N 58°18' W 136°01'0 0.0
2017-May-26 06:30N 58°18' W 136°01'3 3.6
2017-May-26 05:45N 58°19' W 135°56'6 5.8
2017-May-26 04:48N 58°21' W 135°46'  
Track history (hours):
 
Tides and Currents Weather Stations Pressure Air Temp Water Temp Dewpoint Dewpoint Depression Visibility Wind Speed Wind Dir Waves Ship Positions

National Geographic Sea Lion

Owner: Lindblad Expeditions, Inc., SEATTLE, WA. More information available from US FCC via Universal Licensing System and Coast Guard Vessel Documentation Center.

Last reported at 2017-May-26 17:00 UTC. Time now 2017-May-27 02:18 UTC.
Position N 58°39' W 136°03'.

Length 45 m; draft 2.4 m.

Type: Passenger vessel. MMSI: 366396000.

Date/timePositionNaut miles runAvg speedWind from/ knotsBaromVisibWave heightAir tempDewpointWater temp
2017-May-26 17:00N 58°39' W 136°03'1 1.3
2017-May-26 16:30N 58°38' W 136°02'3 6.7
2017-May-26 15:59N 58°35' W 136°03'4 8.6
2017-May-26 15:30N 58°31' W 136°03'3 5.7
2017-May-26 15:00N 58°28' W 136°02'3 6.4
2017-May-26 14:30N 58°26' W 135°57'2 2.3
2017-May-26 13:30N 58°27' W 135°53'0 0.0
2017-May-26 13:00N 58°27' W 135°53'0 0.0
2017-May-26 12:30N 58°27' W 135°53'4 7.6
2017-May-26 12:00N 58°24' W 135°58'4 8.4
2017-May-26 11:30N 58°20' W 135°60'2 0.6
2017-May-26 07:21N 58°18' W 136°01'0 0.1
2017-May-26 07:00N 58°18' W 136°01'0 0.0
2017-May-26 06:30N 58°18' W 136°01'3 3.6
2017-May-26 05:45N 58°19' W 135°56'6 5.8
2017-May-26 04:48N 58°21' W 135°46'  

Dump ship's entire track history